createdAt,value
2022-11-07T00:00:56.938Z,59.43
2022-11-07T00:05:59.562Z,59.78
2022-11-07T00:11:03.009Z,59.81
2022-11-07T00:16:10.204Z,59.85
2022-11-07T00:21:12.824Z,60.15
2022-11-07T00:26:16.046Z,60.04
2022-11-07T00:31:20.423Z,60.16
2022-11-07T00:36:25.183Z,60.44
2022-11-07T00:41:28.948Z,60.53
2022-11-07T00:46:32.908Z,60.61
2022-11-07T00:51:35.565Z,60.54
2022-11-07T00:56:38.214Z,60.58
2022-11-07T01:01:42.301Z,60.76
2022-11-07T01:06:46.512Z,61.08
2022-11-07T01:11:51.066Z,61.26
2022-11-07T01:16:55.204Z,61.46
2022-11-07T01:21:57.837Z,61.56
2022-11-07T01:27:00.440Z,61.59
2022-11-07T01:32:04.697Z,61.74
2022-11-07T01:37:07.812Z,62.05
2022-11-07T01:42:11.545Z,62.32
2022-11-07T01:47:15.600Z,62.67
2022-11-07T01:52:22.255Z,62.97
2022-11-07T01:57:28.548Z,63.21
2022-11-07T02:02:35.782Z,63.59
2022-11-07T02:07:40.252Z,63.96
2022-11-07T02:12:43.714Z,64.37
2022-11-07T02:17:47.735Z,64.48
2022-11-07T02:22:54.979Z,64.50
2022-11-07T02:28:05.116Z,64.90
2022-11-07T02:33:18.356Z,65.07
2022-11-07T02:38:23.460Z,65.22
2022-11-07T02:43:30.160Z,65.39
2022-11-07T02:48:41.358Z,65.48
2022-11-07T02:53:44.348Z,65.68
2022-11-07T02:58:48.462Z,65.84
2022-11-07T03:03:52.346Z,66.07
2022-11-07T03:08:54.967Z,65.97
2022-11-07T03:13:59.722Z,66.45
2022-11-07T03:19:02.525Z,66.64
2022-11-07T03:24:05.704Z,66.66
2022-11-07T03:29:10.209Z,66.89
2022-11-07T03:34:12.860Z,66.96
2022-11-07T03:39:21.828Z,67.31
2022-11-07T03:44:29.704Z,67.30
2022-11-07T03:49:32.551Z,67.31
2022-11-07T03:54:35.300Z,67.53
2022-11-07T03:59:39.348Z,67.66
2022-11-07T04:04:42.058Z,67.84
2022-11-07T04:09:44.652Z,67.99
2022-11-07T04:15:06.573Z,68.07
2022-11-07T04:20:10.639Z,68.21
2022-11-07T04:25:13.289Z,68.64
2022-11-07T04:30:24.408Z,68.60
2022-11-07T04:35:29.066Z,68.60
2022-11-07T04:40:32.070Z,68.82
2022-11-07T04:45:36.655Z,69.94
2022-11-07T04:50:39.738Z,69.54
2022-11-07T04:55:42.827Z,69.57
2022-11-07T05:00:46.749Z,69.63
2022-11-07T05:05:49.510Z,69.82
2022-11-07T05:10:52.193Z,69.36
2022-11-07T05:15:56.279Z,69.18
2022-11-07T05:20:58.941Z,68.88
2022-11-07T05:26:01.810Z,68.64
2022-11-07T05:31:06.992Z,68.31
2022-11-07T05:36:11.317Z,67.96
2022-11-07T05:41:15.351Z,67.75
2022-11-07T05:46:19.287Z,67.58
2022-11-07T05:51:21.932Z,67.60
2022-11-07T05:56:24.479Z,67.81
2022-11-07T06:01:28.530Z,67.77
2022-11-07T06:06:31.852Z,67.91
2022-11-07T06:11:34.662Z,67.81
2022-11-07T06:16:38.763Z,67.77
2022-11-07T06:21:41.396Z,67.92
2022-11-07T06:26:44.004Z,67.77
2022-11-07T06:31:47.996Z,67.97
2022-11-07T06:37:01.564Z,67.55
2022-11-07T06:42:06.000Z,67.80
2022-11-07T06:47:10.013Z,67.80
2022-11-07T06:52:12.623Z,67.71
2022-11-07T06:57:15.232Z,67.87
2022-11-07T07:02:43.882Z,67.72
2022-11-07T07:07:41.769Z,67.74
2022-11-07T07:12:44.600Z,67.96
2022-11-07T07:17:48.552Z,67.78
2022-11-07T07:22:57.004Z,67.76
2022-11-07T07:28:00.639Z,67.66
2022-11-07T07:33:04.740Z,67.66
2022-11-07T07:38:07.368Z,67.57
2022-11-07T07:43:10.013Z,67.50
2022-11-07T07:48:14.021Z,67.63
2022-11-07T07:53:17.101Z,67.59
2022-11-07T07:58:19.913Z,67.67
2022-11-07T08:03:23.843Z,67.72
2022-11-07T08:08:26.918Z,67.70
2022-11-07T08:13:29.831Z,67.86
2022-11-07T08:18:36.510Z,67.67
2022-11-07T08:23:39.451Z,67.79
2022-11-07T08:28:42.140Z,67.81
2022-11-07T08:33:46.302Z,59.35
2022-11-07T08:38:48.933Z,60.48
2022-11-07T08:43:51.651Z,59.19
2022-11-07T08:48:55.602Z,60.55
2022-11-07T08:53:58.298Z,60.55
2022-11-07T08:59:01.345Z,61.80
2022-11-07T09:04:05.782Z,62.12
2022-11-07T09:09:14.017Z,62.18
2022-11-07T09:14:19.199Z,64.61
2022-11-07T09:19:23.136Z,63.80
2022-11-07T09:24:25.763Z,63.75
2022-11-07T09:29:28.446Z,63.87
2022-11-07T09:34:32.407Z,64.10
2022-11-07T09:39:35.290Z,64.41
2022-11-07T09:44:51.834Z,64.54
2022-11-07T09:50:00.222Z,65.08
2022-11-07T09:55:10.055Z,65.26
2022-11-07T10:00:17.060Z,65.04
2022-11-07T10:05:31.958Z,64.76
2022-11-07T10:10:43.295Z,64.59
2022-11-07T10:15:59.431Z,64.63
2022-11-07T10:21:36.445Z,64.38
2022-11-07T10:26:33.268Z,64.23
2022-11-07T10:31:41.166Z,63.93
2022-11-07T10:36:47.425Z,63.76
2022-11-07T10:42:00.214Z,63.63
2022-11-07T10:47:03.527Z,63.32
2022-11-07T10:52:15.807Z,63.05
2022-11-07T10:57:21.195Z,62.88
2022-11-07T11:02:25.253Z,62.63
2022-11-07T11:07:39.459Z,62.59
2022-11-07T11:12:46.897Z,62.51
2022-11-07T11:18:00.505Z,62.56
2022-11-07T11:23:06.974Z,62.45
2022-11-07T11:28:18.436Z,62.23
2022-11-07T11:33:27.867Z,62.44
2022-11-07T11:38:37.397Z,62.24
2022-11-07T11:43:44.965Z,62.01
2022-11-07T11:48:52.386Z,62.14
2022-11-07T11:53:56.425Z,61.83
2022-11-07T11:59:28.159Z,62.08
2022-11-07T12:04:44.163Z,62.27
2022-11-07T12:09:53.320Z,62.26
2022-11-07T12:15:20.962Z,62.49
2022-11-07T12:20:27.892Z,62.35
2022-11-07T12:25:39.266Z,62.73
2022-11-07T12:30:52.938Z,62.60
2022-11-07T12:36:02.329Z,62.84
2022-11-07T12:41:14.268Z,62.81
2022-11-07T12:46:26.710Z,63.03
2022-11-07T12:51:43.599Z,63.06
2022-11-07T12:56:50.241Z,62.94
2022-11-07T13:02:06.780Z,63.02
2022-11-07T13:07:21.869Z,63.10
2022-11-07T13:12:33.970Z,63.33
2022-11-07T13:17:42.066Z,63.29
2022-11-07T13:22:44.723Z,63.29
2022-11-07T13:28:02.936Z,63.27
2022-11-07T13:33:09.045Z,63.43
2022-11-07T13:38:16.332Z,63.53
2022-11-07T13:43:25.194Z,63.49
2022-11-07T13:48:32.134Z,63.63
2022-11-07T13:53:39.758Z,63.57
2022-11-07T13:58:44.696Z,63.81
2022-11-07T14:03:47.306Z,63.80
2022-11-07T14:08:49.906Z,63.83
2022-11-07T14:13:55.076Z,63.96
2022-11-07T14:19:00.938Z,64.66
2022-11-07T14:24:04.234Z,65.65
2022-11-07T14:29:08.701Z,65.84
2022-11-07T14:34:20.376Z,66.28
2022-11-07T14:39:25.554Z,66.46
2022-11-07T14:44:54.065Z,66.66
2022-11-07T14:49:58.053Z,66.89
2022-11-07T14:55:06.265Z,67.12
2022-11-07T15:00:15.793Z,67.16
2022-11-07T15:05:23.434Z,67.37
2022-11-07T15:10:31.295Z,67.38
2022-11-07T15:15:37.251Z,67.72
2022-11-07T15:20:40.806Z,67.38
2022-11-07T15:25:53.612Z,67.29
2022-11-07T15:30:59.745Z,66.99
2022-11-07T15:36:03.059Z,66.32
2022-11-07T15:41:05.808Z,66.15
2022-11-07T15:46:22.002Z,66.19
2022-11-07T15:51:24.797Z,65.88
2022-11-07T15:56:27.667Z,65.95
2022-11-07T16:01:32.272Z,65.65
2022-11-07T16:06:35.593Z,65.46
2022-11-07T16:11:38.313Z,65.23
2022-11-07T16:16:45.254Z,64.85
2022-11-07T16:21:49.152Z,64.83
2022-11-07T16:26:53.305Z,64.85
2022-11-07T16:31:57.392Z,64.67
2022-11-07T16:37:00.077Z,64.27
2022-11-07T16:42:02.914Z,64.20
2022-11-07T16:47:13.357Z,64.23
2022-11-07T16:52:16.861Z,64.24
2022-11-07T16:57:20.304Z,64.20
2022-11-07T17:02:26.397Z,64.06
2022-11-07T17:07:29.135Z,63.95
2022-11-07T17:12:31.859Z,64.02
2022-11-07T17:17:35.870Z,64.60
2022-11-07T17:22:38.464Z,64.87
2022-11-07T17:27:43.162Z,64.98
2022-11-07T17:32:47.350Z,65.03
2022-11-07T17:37:50.063Z,64.94
2022-11-07T17:42:52.794Z,64.66
2022-11-07T17:47:56.864Z,64.43
2022-11-07T17:53:00.467Z,64.21
2022-11-07T17:58:03.067Z,64.07
2022-11-07T18:03:07.295Z,64.16
2022-11-07T18:08:25.045Z,64.03
2022-11-07T18:13:33.281Z,63.98
2022-11-07T18:18:37.734Z,63.85
2022-11-07T18:23:41.668Z,63.99
2022-11-07T18:28:45.104Z,63.74
2022-11-07T18:33:52.384Z,63.83
2022-11-07T18:38:55.011Z,63.73
2022-11-07T18:44:01.792Z,63.57
2022-11-07T18:49:08.806Z,63.57
2022-11-07T18:54:13.700Z,63.36
2022-11-07T18:59:16.534Z,63.32
2022-11-07T19:04:20.505Z,63.47
2022-11-07T19:09:24.546Z,63.28
2022-11-07T19:14:28.146Z,63.27
2022-11-07T19:19:32.157Z,63.22
2022-11-07T19:24:35.523Z,63.03
2022-11-07T19:29:38.189Z,63.18
2022-11-07T19:34:42.961Z,63.18
2022-11-07T19:39:45.579Z,63.16
2022-11-07T19:44:51.676Z,63.03
2022-11-07T19:49:58.153Z,62.97
2022-11-07T19:55:00.936Z,62.94
2022-11-07T20:00:05.015Z,62.99
2022-11-07T20:05:10.332Z,62.89
2022-11-07T20:10:12.899Z,62.88
2022-11-07T20:15:16.105Z,62.84
2022-11-07T20:20:20.361Z,62.83
2022-11-07T20:25:23.377Z,62.83
2022-11-07T20:30:26.032Z,62.71
2022-11-07T20:35:32.430Z,62.77
2022-11-07T20:40:35.071Z,62.73
2022-11-07T20:45:37.775Z,62.70
2022-11-07T20:50:41.777Z,62.46
2022-11-07T20:55:45.087Z,62.64
2022-11-07T21:00:48.043Z,62.52
2022-11-07T21:05:53.546Z,62.51
2022-11-07T21:10:56.512Z,62.51
2022-11-07T21:15:59.223Z,62.46
2022-11-07T21:21:10.905Z,62.67
2022-11-07T21:26:16.463Z,62.70
2022-11-07T21:31:23.568Z,62.54
2022-11-07T21:36:30.433Z,62.45
2022-11-07T21:41:33.153Z,62.75
2022-11-07T21:46:36.046Z,62.80
2022-11-07T21:51:41.163Z,62.59
2022-11-07T21:56:43.917Z,62.49
2022-11-07T22:01:48.668Z,62.65
2022-11-07T22:06:52.939Z,62.50
2022-11-07T22:11:55.714Z,62.51
2022-11-07T22:16:58.376Z,62.61
2022-11-07T22:22:02.340Z,62.51
2022-11-07T22:27:05.415Z,62.49
2022-11-07T22:32:08.045Z,62.56
2022-11-07T22:37:12.078Z,62.55
2022-11-07T22:42:18.440Z,62.69
2022-11-07T22:47:23.750Z,62.49
2022-11-07T22:52:27.723Z,62.52
2022-11-07T22:57:30.592Z,62.54
2022-11-07T23:02:33.503Z,62.53
2022-11-07T23:07:37.696Z,62.57
2022-11-07T23:12:43.968Z,62.42
2022-11-07T23:17:46.703Z,62.50
2022-11-07T23:22:50.709Z,62.62
2022-11-07T23:27:53.271Z,62.68
2022-11-07T23:32:55.924Z,62.63
2022-11-07T23:37:59.984Z,62.58
2022-11-07T23:43:02.710Z,62.61
2022-11-07T23:48:23.357Z,62.48
2022-11-07T23:53:44.759Z,62.67
2022-11-07T23:59:05.373Z,62.81
